Time;durP1;ratioP1;P1;durP2;ratioP2;P2;SDS_P1;SDS_P2;PMS_P1;PMS_P2;Temp;Humidity;BMP_temperature;BMP_pressure;BME280_temperature;BME280_humidity;BME280_pressure;Samples;Min_cycle;Max_cycle;Signal;HPM_P1;HPM_P2
2023/03/31 00:01:32;;;;;;;15.40;2.03;;;9.90;99.90;;;;;;7394603;19;19926;-82
2023/03/31 00:04:03;;;;;;;15.05;2.67;;;9.90;99.90;;;;;;7399215;19;19923;-82
2023/03/31 00:06:36;;;;;;;16.20;2.30;;;9.90;99.90;;;;;;7398804;19;19946;-82
2023/03/31 00:09:10;;;;;;;20.45;3.17;;;10.00;99.90;;;;;;7398021;19;19929;-81
2023/03/31 00:11:39;;;;;;;18.50;2.78;;;10.00;99.90;;;;;;7400188;19;20260;-82
2023/03/31 00:14:10;;;;;;;15.90;4.07;;;9.90;99.90;;;;;;7398392;19;19918;-81
2023/03/31 00:16:40;;;;;;;17.58;3.65;;;9.90;99.90;;;;;;7398180;19;20358;-81
2023/03/31 00:19:16;;;;;;;18.85;2.67;;;10.20;99.90;;;;;;7398894;19;19915;-82
2023/03/31 00:21:46;;;;;;;19.35;3.15;;;9.90;99.90;;;;;;7398488;19;20260;-81
2023/03/31 00:24:18;;;;;;;14.10;3.35;;;10.10;99.90;;;;;;7400407;19;20299;-81
2023/03/31 00:26:47;;;;;;;12.63;2.58;;;10.00;99.90;;;;;;7398249;19;19921;-81
2023/03/31 00:29:16;;;;;;;25.00;3.30;;;10.00;99.90;;;;;;7400004;19;20347;-81
2023/03/31 00:31:44;;;;;;;20.17;3.15;;;10.00;99.90;;;;;;7398073;19;19932;-82
2023/03/31 00:34:13;;;;;;;12.88;2.72;;;9.90;99.90;;;;;;7397608;19;19914;-82
2023/03/31 00:36:46;;;;;;;9.05;1.73;;;10.00;99.90;;;;;;7397643;19;20255;-82
2023/03/31 00:39:19;;;;;;;15.38;2.28;;;9.90;99.90;;;;;;7398371;19;19925;-82
2023/03/31 00:41:48;;;;;;;14.98;2.22;;;10.10;99.90;;;;;;7397603;19;19915;-81
2023/03/31 00:44:21;;;;;;;18.58;3.28;;;10.00;99.90;;;;;;7397530;19;20260;-81
2023/03/31 00:46:55;;;;;;;13.57;3.60;;;10.00;99.90;;;;;;7401554;19;19922;-81
2023/03/31 00:49:30;;;;;;;18.10;2.45;;;10.00;99.90;;;;;;7397048;19;20279;-81
2023/03/31 00:52:04;;;;;;;24.95;3.38;;;9.90;99.90;;;;;;7399139;19;20321;-81
2023/03/31 00:54:38;;;;;;;17.83;2.70;;;10.00;99.90;;;;;;7399469;19;20244;-82
2023/03/31 00:57:08;;;;;;;16.85;3.03;;;9.90;99.90;;;;;;7397665;19;19917;-81
2023/03/31 00:59:40;;;;;;;16.25;3.65;;;9.90;99.90;;;;;;7397053;19;19944;-82
2023/03/31 01:02:10;;;;;;;12.63;2.35;;;9.80;99.90;;;;;;7396136;19;19928;-82
2023/03/31 01:04:49;;;;;;;13.65;2.33;;;9.80;99.90;;;;;;7397034;19;19930;-82
2023/03/31 01:07:22;;;;;;;15.00;3.03;;;9.90;99.90;;;;;;7396630;19;19928;-81
2023/03/31 01:09:58;;;;;;;12.95;2.17;;;9.90;99.90;;;;;;7395257;19;19915;-82
2023/03/31 01:12:29;;;;;;;10.85;2.40;;;9.70;99.90;;;;;;7399398;19;20023;-82
2023/03/31 01:14:58;;;;;;;14.73;2.25;;;9.70;99.90;;;;;;7403849;19;20267;-82
2023/03/31 01:17:28;;;;;;;12.50;2.55;;;9.60;99.90;;;;;;7403482;19;19919;-82
2023/03/31 01:20:11;;;;;;;12.15;2.83;;;9.60;99.90;;;;;;7406502;19;19923;-82
2023/03/31 01:23:10;;;;;;;17.05;2.88;;;9.50;99.90;;;;;;7405486;19;19915;-82
2023/03/31 01:26:19;;;;;;;15.90;2.28;;;9.40;99.90;;;;;;7402917;19;19915;-82
2023/03/31 01:28:56;;;;;;;15.18;2.22;;;9.30;99.90;;;;;;7403172;19;19918;-82
2023/03/31 01:31:49;;;;;;;12.88;2.55;;;9.30;99.90;;;;;;7403582;19;20474;-82
2023/03/31 01:34:56;;;;;;;15.45;2.53;;;9.30;99.90;;;;;;7402825;19;19922;-82
2023/03/31 01:38:05;;;;;;;13.88;1.85;;;9.20;99.90;;;;;;7402329;19;20645;-83
2023/03/31 01:40:59;;;;;;;17.10;2.88;;;9.10;99.90;;;;;;7407441;19;19915;-82
2023/03/31 01:43:35;;;;;;;11.65;1.77;;;9.10;99.90;;;;;;7402735;19;20422;-82
2023/03/31 01:46:10;;;;;;;15.82;2.45;;;9.10;99.90;;;;;;7402765;19;19922;-81
2023/03/31 01:48:46;;;;;;;15.63;3.08;;;9.00;99.90;;;;;;7401506;19;19919;-82
2023/03/31 01:51:20;;;;;;;12.07;2.10;;;8.90;99.90;;;;;;7406233;19;20253;-82
2023/03/31 01:53:56;;;;;;;13.18;2.15;;;8.80;99.90;;;;;;7406129;19;20334;-82
2023/03/31 01:56:33;;;;;;;12.05;1.88;;;8.80;99.90;;;;;;7402507;19;20252;-82
2023/03/31 01:59:07;;;;;;;10.93;2.15;;;9.00;99.90;;;;;;7405004;19;19922;-82
2023/03/31 02:01:39;;;;;;;10.82;1.90;;;9.10;99.90;;;;;;7403840;19;20264;-81
2023/03/31 02:04:14;;;;;;;12.07;2.13;;;8.80;99.90;;;;;;7403051;19;20257;-82
2023/03/31 02:06:48;;;;;;;13.57;2.75;;;8.90;99.90;;;;;;7402613;19;19922;-81
2023/03/31 02:09:22;;;;;;;9.10;1.65;;;8.70;99.90;;;;;;7401931;19;19946;-81
2023/03/31 02:11:58;;;;;;;12.13;1.90;;;8.80;99.90;;;;;;7406283;19;20352;-82
2023/03/31 02:14:32;;;;;;;11.93;1.75;;;8.70;99.90;;;;;;7402089;19;19922;-82
2023/03/31 02:17:03;;;;;;;11.65;2.00;;;8.80;99.90;;;;;;7402360;19;19915;-81
2023/03/31 02:19:35;;;;;;;11.38;1.75;;;8.80;99.90;;;;;;7402305;19;19918;-82
2023/03/31 02:22:06;;;;;;;10.80;2.22;;;8.80;99.90;;;;;;7406470;19;19978;-81
2023/03/31 02:24:38;;;;;;;13.68;3.17;;;8.80;99.90;;;;;;7399635;19;19914;-81
2023/03/31 02:27:14;;;;;;;13.45;2.45;;;8.80;99.90;;;;;;7402419;19;19936;-81
2023/03/31 02:29:43;;;;;;;12.23;2.03;;;8.70;99.90;;;;;;7401711;19;20388;-81
2023/03/31 02:32:17;;;;;;;13.30;2.78;;;8.70;99.90;;;;;;7401845;19;19921;-82
2023/03/31 02:34:46;;;;;;;8.73;1.73;;;8.60;99.90;;;;;;7401759;19;19943;-81
2023/03/31 02:37:16;;;;;;;12.55;1.52;;;8.60;99.90;;;;;;7401560;19;19914;-82
2023/03/31 02:39:48;;;;;;;15.30;2.75;;;8.80;99.90;;;;;;7402580;19;19914;-82
2023/03/31 02:42:20;;;;;;;9.57;2.03;;;8.60;99.90;;;;;;7401232;19;20367;-81
2023/03/31 02:44:49;;;;;;;12.43;1.90;;;8.80;99.90;;;;;;7403502;19;20016;-81
2023/03/31 02:47:21;;;;;;;8.35;1.98;;;8.80;99.90;;;;;;7401241;19;19914;-81
2023/03/31 02:49:53;;;;;;;10.40;2.15;;;8.60;99.90;;;;;;7400430;19;19911;-81
2023/03/31 02:52:53;;;;;;;15.05;2.28;;;8.70;99.90;;;;;;7400969;19;19979;-81
2023/03/31 02:55:46;;;;;;;13.52;2.60;;;8.70;99.90;;;;;;7400926;19;19919;-81
2023/03/31 02:58:36;;;;;;;14.18;2.72;;;8.80;99.90;;;;;;7400967;19;20362;-81
2023/03/31 03:01:36;;;;;;;13.57;2.00;;;8.80;99.90;;;;;;7400966;19;19919;-81
2023/03/31 03:04:24;;;;;;;7.40;1.75;;;8.90;99.90;;;;;;7400690;19;19925;-81
2023/03/31 03:07:02;;;;;;;11.63;2.33;;;8.90;99.90;;;;;;7404746;19;19915;-82
2023/03/31 03:09:40;;;;;;;13.85;2.88;;;8.80;99.90;;;;;;7403953;19;19923;-82
2023/03/31 03:12:17;;;;;;;9.70;2.22;;;8.70;99.90;;;;;;7400191;19;19923;-81
2023/03/31 03:14:53;;;;;;;12.40;2.33;;;8.60;99.90;;;;;;7400804;19;19933;-81
2023/03/31 03:17:27;;;;;;;15.00;2.90;;;8.70;99.90;;;;;;7400573;19;19931;-82
2023/03/31 03:19:58;;;;;;;9.38;2.10;;;8.90;99.90;;;;;;7404436;19;20548;-81
2023/03/31 03:22:27;;;;;;;12.27;2.80;;;8.80;99.90;;;;;;7400278;19;19915;-82
2023/03/31 03:24:56;;;;;;;12.18;2.58;;;8.80;99.90;;;;;;7400216;19;19999;-82
2023/03/31 03:27:25;;;;;;;7.53;2.10;;;8.90;99.90;;;;;;7400393;19;19928;-82
2023/03/31 03:29:57;;;;;;;11.98;2.92;;;8.80;99.90;;;;;;7399160;19;19921;-81
2023/03/31 03:32:26;;;;;;;9.98;2.58;;;8.80;99.90;;;;;;7399715;19;20342;-82
2023/03/31 03:34:55;;;;;;;12.45;2.50;;;8.80;99.90;;;;;;7400058;19;19915;-82
2023/03/31 03:37:24;;;;;;;9.93;2.53;;;8.80;99.90;;;;;;7401673;19;19914;-82
2023/03/31 03:39:53;;;;;;;10.07;2.17;;;8.70;99.90;;;;;;7403207;19;20347;-82
2023/03/31 03:42:22;;;;;;;10.57;2.40;;;8.90;99.90;;;;;;7402714;19;20264;-82
2023/03/31 03:44:51;;;;;;;11.80;2.10;;;8.80;99.90;;;;;;7399631;19;19924;-81
2023/03/31 03:47:23;;;;;;;11.85;2.63;;;8.80;99.90;;;;;;7399766;19;19919;-82
2023/03/31 03:49:52;;;;;;;11.55;2.78;;;8.90;99.90;;;;;;7399129;19;20336;-82
2023/03/31 03:52:22;;;;;;;9.90;2.40;;;8.70;99.90;;;;;;7400298;19;19918;-82
2023/03/31 03:54:50;;;;;;;5.07;1.85;;;8.70;99.90;;;;;;7398623;19;19946;-82
2023/03/31 03:57:19;;;;;;;10.57;2.85;;;8.70;99.90;;;;;;7399504;19;19917;-82
2023/03/31 03:59:48;;;;;;;6.65;1.80;;;8.90;99.90;;;;;;7397466;19;19918;-82
2023/03/31 04:02:17;;;;;;;10.02;2.17;;;8.70;99.90;;;;;;7397747;19;20283;-82
2023/03/31 04:04:49;;;;;;;8.32;2.50;;;8.60;99.90;;;;;;7398858;19;19926;-82
2023/03/31 04:07:18;;;;;;;9.55;2.00;;;8.90;99.90;;;;;;7399177;19;19919;-82
2023/03/31 04:09:47;;;;;;;8.35;2.28;;;8.80;99.90;;;;;;7401526;19;20248;-82
2023/03/31 04:12:16;;;;;;;10.73;2.15;;;7.50;99.90;;;;;;7398572;19;19922;-82
2023/03/31 04:14:45;;;;;;;5.50;2.08;;;8.70;99.90;;;;;;7405221;19;19911;-82
2023/03/31 04:17:14;;;;;;;6.28;1.90;;;8.90;99.90;;;;;;7401875;19;19921;-82
2023/03/31 04:19:43;;;;;;;12.70;2.60;;;8.70;99.90;;;;;;7398853;19;19939;-82
2023/03/31 04:22:19;;;;;;;12.50;2.63;;;8.80;99.90;;;;;;7398665;19;20352;-82
2023/03/31 04:24:51;;;;;;;7.70;2.22;;;8.80;99.90;;;;;;7398477;19;19986;-82
2023/03/31 04:27:21;;;;;;;7.95;2.17;;;8.90;99.90;;;;;;7401406;19;19918;-82
2023/03/31 04:29:53;;;;;;;9.70;2.05;;;8.80;99.90;;;;;;7397830;19;19919;-82
2023/03/31 04:32:23;;;;;;;;;;;8.80;99.90;;;;;;7400124;19;19907;-83
2023/03/31 04:35:01;;;;;;;6.43;2.30;;;8.80;99.90;;;;;;7397913;19;20280;-82
2023/03/31 04:37:33;;;;;;;7.25;2.53;;;8.80;99.90;;;;;;7397755;19;19914;-81
2023/03/31 04:40:08;;;;;;;5.63;1.65;;;8.80;99.90;;;;;;7401168;19;19907;-82
2023/03/31 04:42:37;;;;;;;3.58;1.70;;;8.90;99.90;;;;;;7400747;19;19938;-82
2023/03/31 04:45:06;;;;;;;9.82;2.40;;;8.80;99.90;;;;;;7402483;19;19938;-82
2023/03/31 04:47:36;;;;;;;9.80;2.20;;;8.90;99.90;;;;;;7402504;19;20261;-83
2023/03/31 04:50:05;;;;;;;8.90;2.28;;;8.80;99.90;;;;;;7404034;19;19942;-83
2023/03/31 04:52:37;;;;;;;7.07;1.73;;;8.30;99.90;;;;;;7404620;19;19948;-83
2023/03/31 04:55:07;;;;;;;5.25;2.10;;;8.90;99.90;;;;;;7404415;19;19918;-82
2023/03/31 04:57:36;;;;;;;8.05;2.28;;;8.80;99.90;;;;;;7404425;19;19929;-84
2023/03/31 05:00:08;;;;;;;4.15;1.58;;;8.70;99.90;;;;;;7405018;19;19918;-84
2023/03/31 05:02:36;;;;;;;6.43;2.40;;;8.70;99.90;;;;;;7407347;19;19922;-84
2023/03/31 05:05:06;;;;;;;8.65;2.00;;;8.70;99.90;;;;;;7407855;19;19911;-85
2023/03/31 05:07:37;;;;;;;9.80;1.90;;;8.80;99.90;;;;;;7406473;19;20358;-84
2023/03/31 05:10:07;;;;;;;10.63;1.90;;;8.80;99.90;;;;;;7403994;19;19924;-85
2023/03/31 05:12:37;;;;;;;5.57;2.00;;;8.70;99.90;;;;;;7403984;19;19915;-84
2023/03/31 05:15:07;;;;;;;8.38;2.05;;;8.80;99.90;;;;;;7405116;19;19925;-84
2023/03/31 05:17:38;;;;;;;5.75;1.73;;;8.70;99.90;;;;;;7408180;19;19982;-84
2023/03/31 05:20:08;;;;;;;5.47;1.60;;;8.90;99.90;;;;;;7408316;19;19918;-83
2023/03/31 05:22:41;;;;;;;10.15;2.65;;;8.90;99.90;;;;;;7421248;19;19938;-84
2023/03/31 05:25:13;;;;;;;7.28;1.90;;;8.90;99.90;;;;;;7406297;19;19915;-84
2023/03/31 05:27:42;;;;;;;6.88;2.05;;;8.80;99.90;;;;;;7405193;19;20337;-84
2023/03/31 05:30:12;;;;;;;5.95;2.05;;;8.90;99.90;;;;;;7404299;19;20253;-85
2023/03/31 05:32:41;;;;;;;3.10;1.80;;;8.80;99.90;;;;;;7403826;19;19914;-84
2023/03/31 05:35:10;;;;;;;5.90;1.88;;;8.80;99.90;;;;;;7407123;19;19974;-83
2023/03/31 05:37:42;;;;;;;9.25;2.28;;;8.90;99.90;;;;;;7404055;19;19929;-84
2023/03/31 05:40:12;;;;;;;4.88;1.55;;;8.80;99.90;;;;;;7407295;19;19919;-84
2023/03/31 05:42:41;;;;;;;4.88;1.90;;;8.80;99.90;;;;;;7403949;19;19918;-83
2023/03/31 05:45:11;;;;;;;7.15;1.65;;;9.00;99.90;;;;;;7403596;19;19979;-83
2023/03/31 05:47:40;;;;;;;6.80;2.00;;;8.90;99.90;;;;;;7403747;19;19915;-84
2023/03/31 05:50:09;;;;;;;4.40;1.85;;;8.80;99.90;;;;;;7403332;19;19922;-84
2023/03/31 05:52:41;;;;;;;5.53;1.80;;;8.80;99.90;;;;;;7407297;19;19922;-84
2023/03/31 05:55:12;;;;;;;6.90;1.67;;;8.90;99.90;;;;;;7403033;19;19922;-87
2023/03/31 05:57:40;;;;;;;11.43;2.63;;;8.90;99.90;;;;;;7403587;19;19915;-88
2023/03/31 06:00:11;;;;;;;3.92;1.50;;;8.90;99.90;;;;;;7402488;19;19928;-86
2023/03/31 06:02:40;;;;;;;5.68;1.70;;;8.80;99.90;;;;;;7402075;19;19910;-87
2023/03/31 06:05:10;;;;;;;6.20;1.50;;;9.00;99.90;;;;;;7404278;19;19940;-86
2023/03/31 06:07:41;;;;;;;4.97;2.00;;;9.00;99.90;;;;;;7404080;19;19936;-86
2023/03/31 06:10:11;;;;;;;4.03;1.90;;;8.80;99.90;;;;;;7401805;19;20675;-86
2023/03/31 06:12:41;;;;;;;6.65;2.80;;;8.70;99.90;;;;;;7407423;19;19925;-82
2023/03/31 06:15:11;;;;;;;6.53;2.20;;;8.80;99.90;;;;;;7406523;19;19935;-80
2023/03/31 06:17:40;;;;;;;3.38;1.73;;;8.80;99.90;;;;;;7402569;19;19915;-84
2023/03/31 06:20:09;;;;;;;7.10;2.17;;;8.90;99.90;;;;;;7402438;19;19931;-83
2023/03/31 06:22:41;;;;;;;6.28;2.30;;;9.00;99.90;;;;;;7402555;19;19925;-82
2023/03/31 06:25:11;;;;;;;6.28;3.40;;;9.00;99.90;;;;;;7403090;19;20482;-82
2023/03/31 06:27:40;;;;;;;5.28;2.05;;;8.80;99.90;;;;;;7403407;19;19982;-82
2023/03/31 06:30:10;;;;;;;8.40;2.83;;;8.90;99.90;;;;;;7402726;19;19938;-82
2023/03/31 06:32:39;;;;;;;6.15;2.78;;;8.90;99.90;;;;;;7401959;19;19924;-83
2023/03/31 06:35:09;;;;;;;8.20;2.25;;;9.00;99.90;;;;;;7402546;19;20241;-83
2023/03/31 06:37:41;;;;;;;5.10;1.90;;;9.10;99.90;;;;;;7402094;19;19974;-82
2023/03/31 06:40:11;;;;;;;5.05;1.88;;;8.90;99.90;;;;;;7405146;19;19926;-82
2023/03/31 06:42:40;;;;;;;4.80;2.03;;;9.10;99.90;;;;;;7403584;19;20281;-82
2023/03/31 06:45:10;;;;;;;7.75;1.80;;;9.10;99.90;;;;;;7407264;19;19922;-83
2023/03/31 06:47:40;;;;;;;3.72;2.05;;;9.10;99.90;;;;;;7402039;19;20323;-83
2023/03/31 06:50:11;;;;;;;6.35;2.17;;;9.10;99.90;;;;;;7401553;19;19915;-83
2023/03/31 06:52:43;;;;;;;3.88;1.65;;;9.10;99.90;;;;;;7399063;19;19924;-82
2023/03/31 06:55:14;;;;;;;3.55;1.75;;;9.20;99.90;;;;;;7401690;19;19926;-83
2023/03/31 06:57:43;;;;;;;5.45;2.30;;;9.10;99.90;;;;;;7403134;19;20298;-82
2023/03/31 07:00:13;;;;;;;4.05;1.88;;;9.20;99.90;;;;;;7401079;19;19918;-83
2023/03/31 07:02:42;;;;;;;6.07;1.60;;;9.00;99.90;;;;;;7402474;19;19923;-83
2023/03/31 07:05:11;;;;;;;5.93;2.03;;;9.20;99.90;;;;;;7402907;19;19919;-83
2023/03/31 07:07:43;;;;;;;6.47;2.05;;;9.10;99.90;;;;;;7401446;19;19944;-83
2023/03/31 07:10:12;;;;;;;5.35;1.90;;;9.10;99.90;;;;;;7400619;19;19922;-83
2023/03/31 07:12:42;;;;;;;4.50;1.73;;;9.20;99.90;;;;;;7398455;19;19915;-83
2023/03/31 07:15:11;;;;;;;6.55;2.50;;;9.30;99.90;;;;;;7404365;19;19974;-83
2023/03/31 07:17:41;;;;;;;8.20;2.42;;;9.20;99.90;;;;;;7402516;19;19918;-83
2023/03/31 07:20:13;;;;;;;4.20;2.00;;;9.10;99.90;;;;;;7401844;19;19926;-83
2023/03/31 07:22:46;;;;;;;3.83;1.70;;;9.20;99.90;;;;;;7403213;19;19942;-83
2023/03/31 07:25:18;;;;;;;4.95;1.80;;;10.20;99.90;;;;;;7399835;19;19919;-84
2023/03/31 07:27:47;;;;;;;8.18;2.35;;;9.20;99.90;;;;;;7400667;19;19915;-83
2023/03/31 07:30:18;;;;;;;4.45;1.90;;;9.30;99.90;;;;;;7398674;19;19937;-83
2023/03/31 07:32:49;;;;;;;6.90;2.30;;;9.30;99.90;;;;;;7399259;19;19926;-83
2023/03/31 07:35:19;;;;;;;4.38;2.22;;;9.30;99.90;;;;;;7403266;19;19951;-83
2023/03/31 07:37:52;;;;;;;5.35;2.00;;;9.30;99.90;;;;;;7400340;19;19919;-83
2023/03/31 07:40:24;;;;;;;4.10;1.92;;;9.90;99.90;;;;;;7402521;19;20278;-82
2023/03/31 07:42:54;;;;;;;5.25;2.67;;;9.40;99.90;;;;;;7402576;19;20265;-83
2023/03/31 07:45:25;;;;;;;3.85;1.95;;;9.30;99.90;;;;;;7401221;19;20268;-83
2023/03/31 07:47:54;;;;;;;6.32;2.00;;;9.20;99.90;;;;;;7399547;19;19932;-84
2023/03/31 07:50:24;;;;;;;7.90;2.03;;;9.30;99.90;;;;;;7399683;19;19974;-83
2023/03/31 07:52:56;;;;;;;3.90;1.80;;;9.40;99.90;;;;;;7398317;19;20348;-82
2023/03/31 07:55:26;;;;;;;5.63;2.13;;;9.30;99.90;;;;;;7398740;19;19930;-83
2023/03/31 07:57:55;;;;;;;5.30;2.00;;;9.30;99.90;;;;;;7399985;19;19935;-83
2023/03/31 08:00:24;;;;;;;5.15;1.80;;;9.30;99.90;;;;;;7399777;19;19916;-84
2023/03/31 08:02:53;;;;;;;4.03;1.92;;;9.40;99.90;;;;;;7399346;19;19925;-83
2023/03/31 08:05:22;;;;;;;5.93;2.10;;;9.40;99.90;;;;;;7400330;19;19925;-83
2023/03/31 08:07:54;;;;;;;5.53;2.30;;;9.40;99.90;;;;;;7401069;19;19937;-83
2023/03/31 08:10:26;;;;;;;3.33;1.75;;;9.40;99.90;;;;;;7401686;19;19933;-84
2023/03/31 08:12:56;;;;;;;4.65;2.20;;;9.40;99.90;;;;;;7401059;19;19926;-83
2023/03/31 08:15:26;;;;;;;4.97;2.00;;;9.40;99.90;;;;;;7401823;19;19914;-83
2023/03/31 08:17:55;;;;;;;10.43;2.65;;;9.30;99.90;;;;;;7402283;19;20273;-83
2023/03/31 08:20:23;;;;;;;3.92;2.15;;;9.40;99.90;;;;;;7399608;19;20273;-83
2023/03/31 08:22:55;;;;;;;4.85;2.42;;;9.30;99.90;;;;;;7404639;19;19929;-83
2023/03/31 08:25:24;;;;;;;8.48;2.58;;;9.30;99.90;;;;;;7408867;19;20396;-83
2023/03/31 08:27:54;;;;;;;3.70;2.47;;;9.40;99.90;;;;;;7408294;19;19918;-83
2023/03/31 08:30:25;;;;;;;6.50;2.50;;;9.40;99.90;;;;;;7406092;19;19918;-82
2023/03/31 08:32:54;;;;;;;6.88;2.88;;;9.30;99.90;;;;;;7405925;19;19983;-83
2023/03/31 08:35:23;;;;;;;6.07;2.88;;;9.40;99.90;;;;;;7405300;19;19925;-83
2023/03/31 08:37:54;;;;;;;9.98;3.05;;;9.30;99.90;;;;;;7405144;19;19925;-83
2023/03/31 08:40:26;;;;;;;4.70;2.30;;;9.40;99.90;;;;;;7410047;19;19928;-82
2023/03/31 08:42:58;;;;;;;5.40;2.65;;;9.30;99.90;;;;;;7410745;19;19974;-83
2023/03/31 08:45:32;;;;;;;8.20;2.80;;;8.40;99.90;;;;;;7407378;19;20287;-83
2023/03/31 08:48:05;;;;;;;5.43;2.60;;;9.50;99.90;;;;;;7408784;19;19932;-83
2023/03/31 08:50:37;;;;;;;8.45;3.30;;;9.40;99.90;;;;;;7405286;19;20262;-83
2023/03/31 08:53:15;;;;;;;6.65;2.53;;;9.40;99.90;;;;;;7402032;19;19919;-83
2023/03/31 08:55:50;;;;;;;7.20;3.08;;;9.40;99.90;;;;;;7402823;19;19915;-83
2023/03/31 08:58:31;;;;;;;6.35;3.08;;;9.30;99.90;;;;;;7407764;19;19920;-83
2023/03/31 09:01:09;;;;;;;7.85;2.72;;;9.30;99.90;;;;;;7403737;19;19923;-83
2023/03/31 09:03:51;;;;;;;6.57;3.10;;;9.30;99.90;;;;;;7404986;19;19926;-83
2023/03/31 09:06:24;;;;;;;11.57;4.03;;;9.30;99.90;;;;;;7403811;19;19923;-82
2023/03/31 09:08:59;;;;;;;8.30;4.25;;;9.30;99.90;;;;;;7406305;19;19930;-83
2023/03/31 09:11:35;;;;;;;8.50;3.70;;;9.40;99.90;;;;;;7403230;19;19931;-83
2023/03/31 09:14:23;;;;;;;9.55;4.03;;;9.50;99.90;;;;;;7406724;19;19926;-83
2023/03/31 09:17:02;;;;;;;6.40;3.45;;;9.50;99.90;;;;;;7408303;19;19928;-82
2023/03/31 09:19:38;;;;;;;5.65;3.53;;;9.40;99.90;;;;;;7401794;19;20373;-83
2023/03/31 09:22:14;;;;;;;7.35;3.72;;;9.70;99.90;;;;;;7405190;19;19926;-83
2023/03/31 09:24:52;;;;;;;7.45;4.03;;;9.50;99.90;;;;;;7405085;19;19919;-84
2023/03/31 09:27:22;;;;;;;9.15;3.72;;;9.50;99.90;;;;;;7403665;19;19928;-83
2023/03/31 09:29:54;;;;;;;6.55;2.80;;;9.50;99.90;;;;;;7404611;19;19914;-83
2023/03/31 09:32:25;;;;;;;10.77;3.38;;;9.50;99.90;;;;;;7402759;19;20477;-83
2023/03/31 09:34:59;;;;;;;6.35;3.38;;;9.70;99.90;;;;;;7406159;19;19946;-83
2023/03/31 09:37:32;;;;;;;7.10;3.78;;;9.60;99.90;;;;;;7404925;19;19982;-83
2023/03/31 09:40:09;;;;;;;10.18;3.90;;;9.70;99.90;;;;;;7407692;19;19934;-83
2023/03/31 09:42:38;;;;;;;7.13;3.13;;;9.60;99.90;;;;;;7405638;19;19953;-83
2023/03/31 09:45:09;;;;;;;5.60;2.80;;;9.70;99.90;;;;;;7406033;19;19926;-83
2023/03/31 09:47:43;;;;;;;6.38;2.70;;;9.70;99.90;;;;;;7408169;19;19925;-83
2023/03/31 09:50:14;;;;;;;6.70;2.90;;;9.70;99.90;;;;;;7420938;19;19930;-83
2023/03/31 09:52:45;;;;;;;11.48;2.60;;;9.70;99.90;;;;;;7406074;19;19921;-84
2023/03/31 09:55:23;;;;;;;8.55;2.83;;;9.80;99.90;;;;;;7402876;19;19919;-83
2023/03/31 09:57:53;;;;;;;7.88;3.10;;;9.80;99.90;;;;;;7404684;19;19918;-84
2023/03/31 10:00:26;;;;;;;4.38;2.70;;;9.80;99.90;;;;;;7404245;19;20327;-84
2023/03/31 10:02:56;;;;;;;5.22;2.60;;;9.90;99.90;;;;;;7403611;19;19956;-84
2023/03/31 10:05:31;;;;;;;11.15;2.70;;;9.90;99.90;;;;;;7405301;19;19914;-83
2023/03/31 10:08:26;;;;;;;3.47;2.03;;;9.80;99.90;;;;;;7401467;19;19926;-85
2023/03/31 10:11:00;;;;;;;5.05;3.05;;;9.90;99.90;;;;;;7402897;19;19919;-84
2023/03/31 10:13:36;;;;;;;4.55;2.17;;;9.90;99.90;;;;;;7403737;19;19925;-83
2023/03/31 10:16:08;;;;;;;4.68;2.00;;;9.70;99.90;;;;;;7403872;19;19926;-81
2023/03/31 10:18:40;;;;;;;5.03;2.60;;;9.90;99.90;;;;;;7404859;19;19926;-86
2023/03/31 10:21:17;;;;;;;5.43;2.35;;;9.70;99.90;;;;;;7405702;19;19923;-82
2023/03/31 10:23:49;;;;;;;9.40;2.63;;;9.90;99.90;;;;;;7403916;19;19926;-83
2023/03/31 10:26:24;;;;;;;5.38;1.83;;;9.80;99.90;;;;;;7403180;19;19918;-83
2023/03/31 10:28:54;;;;;;;5.72;2.83;;;9.90;99.90;;;;;;7404679;19;19998;-83
2023/03/31 10:31:28;;;;;;;4.22;1.80;;;9.80;99.90;;;;;;7401806;19;20342;-83
2023/03/31 10:33:58;;;;;;;3.75;1.30;;;9.90;99.90;;;;;;7401907;19;19970;-83
2023/03/31 10:36:30;;;;;;;6.95;1.63;;;9.90;99.90;;;;;;7407340;19;19930;-83
2023/03/31 10:39:00;;;;;;;1.67;1.20;;;9.80;99.90;;;;;;7403005;19;19926;-83
2023/03/31 10:41:32;;;;;;;4.00;1.30;;;9.90;99.90;;;;;;7403226;19;20396;-82
2023/03/31 10:44:03;;;;;;;4.88;1.38;;;9.90;99.90;;;;;;7401388;19;19915;-82
2023/03/31 10:46:45;;;;;;;2.10;1.30;;;9.90;99.90;;;;;;7395854;19;19926;-84
2023/03/31 10:49:25;;;;;;;4.50;1.15;;;9.80;99.90;;;;;;7405232;19;19950;-85
2023/03/31 10:51:56;;;;;;;4.90;1.00;;;9.80;99.90;;;;;;7409073;19;19928;-84
2023/03/31 10:54:25;;;;;;;2.85;0.90;;;9.90;99.90;;;;;;7408431;19;19942;-87
2023/03/31 10:57:00;;;;;;;3.80;0.70;;;10.10;99.90;;;;;;7426134;19;19939;-83
2023/03/31 10:59:42;;;;;;;2.70;1.00;;;10.00;99.90;;;;;;7412806;19;19978;-85
2023/03/31 11:02:35;;;;;;;2.53;1.00;;;10.00;99.90;;;;;;7406020;19;20426;-86
2023/03/31 11:05:14;;;;;;;1.98;0.60;;;9.80;99.90;;;;;;7404669;19;19922;-87
2023/03/31 11:08:00;;;;;;;4.28;0.60;;;9.90;99.90;;;;;;7406185;19;19919;-86
2023/03/31 11:10:50;;;;;;;3.00;1.10;;;10.10;99.90;;;;;;7402221;19;19956;-84
2023/03/31 11:13:32;;;;;;;1.73;0.90;;;10.20;99.90;;;;;;7407189;19;20334;-83
2023/03/31 11:16:14;;;;;;;5.70;1.08;;;10.30;99.90;;;;;;7404265;19;20344;-81
2023/03/31 11:18:58;;;;;;;1.52;0.70;;;10.40;99.90;;;;;;7406109;19;19923;-82
2023/03/31 11:21:39;;;;;;;3.85;1.10;;;10.20;99.90;;;;;;7404664;19;19923;-82
2023/03/31 11:24:16;;;;;;;1.17;0.70;;;10.30;99.90;;;;;;7404394;19;19918;-84
2023/03/31 11:26:52;;;;;;;2.10;1.10;;;10.20;99.90;;;;;;7408136;19;19951;-84
2023/03/31 11:29:35;;;;;;;3.92;0.95;;;10.20;99.90;;;;;;7403168;19;19930;-78
2023/03/31 11:32:21;;;;;;;3.58;1.00;;;10.40;99.90;;;;;;7402211;19;19922;-86
2023/03/31 11:35:06;;;;;;;2.30;1.08;;;10.30;99.90;;;;;;7402489;19;19999;-89
2023/03/31 11:37:57;;;;;;;3.03;0.95;;;10.30;99.90;;;;;;7405901;19;19946;-90
2023/03/31 11:40:39;;;;;;;2.72;1.00;;;10.20;99.90;;;;;;7405052;19;19925;-83
2023/03/31 11:43:13;;;;;;;1.73;0.80;;;10.40;99.90;;;;;;7409343;19;19924;-86
2023/03/31 11:45:51;;;;;;;1.77;1.02;;;10.50;99.90;;;;;;7404008;19;19942;-83
2023/03/31 11:48:23;;;;;;;;;;;10.70;99.90;;;;;;7406181;19;20294;-81
2023/03/31 11:50:54;;;;;;;2.10;1.20;;;10.90;99.90;;;;;;7403250;19;19941;-83
2023/03/31 11:53:28;;;;;;;7.53;1.30;;;11.00;99.90;;;;;;7401181;19;19931;-82
2023/03/31 11:56:01;;;;;;;3.28;1.00;;;11.10;99.90;;;;;;7399524;19;20694;-82
2023/03/31 11:58:36;;;;;;;3.58;1.30;;;11.20;99.90;;;;;;7401632;19;19925;-84
2023/03/31 12:01:16;;;;;;;4.50;1.38;;;11.30;99.90;;;;;;7405792;19;19925;-84
2023/03/31 12:03:54;;;;;;;6.28;1.40;;;11.40;99.90;;;;;;7415099;19;19940;-80
2023/03/31 12:06:27;;;;;;;2.88;1.50;;;11.50;99.90;;;;;;7403698;19;19942;-81
2023/03/31 12:09:07;;;;;;;3.22;1.00;;;11.50;99.90;;;;;;7401640;19;19926;-83
2023/03/31 12:11:41;;;;;;;4.10;1.17;;;11.50;99.90;;;;;;7400366;19;19919;-83
2023/03/31 12:14:27;;;;;;;2.53;1.20;;;11.40;99.90;;;;;;7399597;19;19926;-83
2023/03/31 12:17:05;;;;;;;4.07;1.38;;;11.60;99.90;;;;;;7401353;19;20481;-83
2023/03/31 12:19:44;;;;;;;2.65;0.95;;;11.50;99.90;;;;;;7400831;19;19918;-81
2023/03/31 12:22:17;;;;;;;5.78;1.30;;;11.50;99.90;;;;;;7398637;19;19946;-83
2023/03/31 12:24:46;;;;;;;3.70;0.88;;;11.60;99.90;;;;;;7401221;19;19926;-80
2023/03/31 12:27:20;;;;;;;3.17;0.75;;;11.30;99.90;;;;;;7396791;19;19960;-79
2023/03/31 12:29:57;;;;;;;2.72;1.35;;;11.30;99.90;;;;;;7401949;19;19926;-80
2023/03/31 12:32:31;;;;;;;4.05;1.20;;;11.10;99.90;;;;;;7399768;19;19947;-80
2023/03/31 12:35:02;;;;;;;4.00;1.17;;;11.20;99.90;;;;;;7400773;19;20486;-81
2023/03/31 12:38:10;;;;;;;8.15;1.77;;;11.20;99.90;;;;;;7398574;19;19918;-81
2023/03/31 12:40:50;;;;;;;2.90;1.30;;;11.10;99.90;;;;;;7400721;19;19923;-82
2023/03/31 12:43:41;;;;;;;2.72;0.93;;;11.10;99.90;;;;;;7399293;19;19941;-80
2023/03/31 12:46:26;;;;;;;3.33;0.90;;;11.00;99.90;;;;;;7396233;19;19927;-81
2023/03/31 12:49:25;;;;;;;3.95;1.60;;;11.10;99.90;;;;;;7399068;19;20337;-81
2023/03/31 12:52:04;;;;;;;4.63;1.27;;;11.20;99.90;;;;;;7398411;19;19945;-79
2023/03/31 12:54:59;;;;;;;3.25;1.52;;;11.30;99.90;;;;;;7396474;19;19938;-79
2023/03/31 12:57:28;;;;;;;5.43;1.55;;;11.40;99.90;;;;;;7398620;19;19919;-80
2023/03/31 13:00:25;;;;;;;5.38;1.50;;;11.70;99.90;;;;;;7398377;19;19994;-78
2023/03/31 13:03:24;;;;;;;4.82;1.48;;;12.00;99.90;;;;;;7400543;19;19929;-79
2023/03/31 13:05:55;;;;;;;7.72;1.48;;;11.80;99.90;;;;;;7398390;19;20342;-82
2023/03/31 13:08:56;;;;;;;4.55;2.10;;;11.90;99.90;;;;;;7405952;19;19927;-81
2023/03/31 13:11:37;;;;;;;4.72;1.55;;;12.00;99.90;;;;;;7406793;19;19922;-81
2023/03/31 13:14:13;;;;;;;3.40;1.38;;;11.90;99.90;;;;;;7405320;19;20662;-85
2023/03/31 13:16:43;;;;;;;4.63;1.60;;;11.80;99.90;;;;;;7407380;19;19986;-80
2023/03/31 13:19:26;;;;;;;5.35;2.00;;;11.90;99.90;;;;;;7404951;19;19926;-79
2023/03/31 13:22:00;;;;;;;6.07;2.00;;;12.00;99.90;;;;;;7404338;19;19922;-80
2023/03/31 13:24:30;;;;;;;5.88;1.63;;;11.90;99.90;;;;;;7403397;19;19918;-80
2023/03/31 13:27:01;;;;;;;5.72;1.52;;;11.80;99.90;;;;;;7405473;19;19926;-80
2023/03/31 13:29:43;;;;;;;6.65;1.67;;;11.90;99.90;;;;;;7404600;19;19915;-80